sensor_id;sensor_type;location;lat;lon;timestamp;temperature;humidity
58309;DHT22;44117;57.142;24.826;2023-02-26T00:01:52;-2.70;99.90
58309;DHT22;44117;57.142;24.826;2023-02-26T00:04:23;-2.60;99.90
58309;DHT22;44117;57.142;24.826;2023-02-26T00:06:50;-2.70;99.90
58309;DHT22;44117;57.142;24.826;2023-02-26T00:09:24;-2.70;99.90
58309;DHT22;44117;57.142;24.826;2023-02-26T00:11:52;-2.60;99.90
58309;DHT22;44117;57.142;24.826;2023-02-26T00:14:19;-2.60;99.90
58309;DHT22;44117;57.142;24.826;2023-02-26T00:16:49;-2.60;99.90
58309;DHT22;44117;57.142;24.826;2023-02-26T00:19:19;-2.60;99.90
58309;DHT22;44117;57.142;24.826;2023-02-26T00:21:46;-2.60;99.90
58309;DHT22;44117;57.142;24.826;2023-02-26T00:24:13;-2.60;99.90
58309;DHT22;44117;57.142;24.826;2023-02-26T00:26:40;-2.60;99.90
58309;DHT22;44117;57.142;24.826;2023-02-26T00:29:07;-2.60;99.90
58309;DHT22;44117;57.142;24.826;2023-02-26T00:31:35;-2.60;99.90
58309;DHT22;44117;57.142;24.826;2023-02-26T00:34:02;-2.70;99.90
58309;DHT22;44117;57.142;24.826;2023-02-26T00:36:42;-2.60;99.90
58309;DHT22;44117;57.142;24.826;2023-02-26T00:41:48;-2.70;99.90
58309;DHT22;44117;57.142;24.826;2023-02-26T00:44:16;-2.70;99.90
58309;DHT22;44117;57.142;24.826;2023-02-26T00:46:44;-2.70;99.90
58309;DHT22;44117;57.142;24.826;2023-02-26T00:52:01;-2.70;99.90
58309;DHT22;44117;57.142;24.826;2023-02-26T00:54:30;-2.70;99.90
58309;DHT22;44117;57.142;24.826;2023-02-26T00:56:57;-2.70;99.90
58309;DHT22;44117;57.142;24.826;2023-02-26T00:59:25;-2.70;99.90
58309;DHT22;44117;57.142;24.826;2023-02-26T01:01:52;-2.80;99.90
58309;DHT22;44117;57.142;24.826;2023-02-26T01:04:20;-2.80;99.90
58309;DHT22;44117;57.142;24.826;2023-02-26T01:06:56;-2.70;99.90
58309;DHT22;44117;57.142;24.826;2023-02-26T01:11:54;-2.80;99.90
58309;DHT22;44117;57.142;24.826;2023-02-26T01:14:22;-2.80;99.90
58309;DHT22;44117;57.142;24.826;2023-02-26T01:19:32;-2.80;99.90
58309;DHT22;44117;57.142;24.826;2023-02-26T01:22:12;-2.70;99.90
58309;DHT22;44117;57.142;24.826;2023-02-26T01:24:40;-2.80;99.90
58309;DHT22;44117;57.142;24.826;2023-02-26T01:27:08;-2.80;99.90
58309;DHT22;44117;57.142;24.826;2023-02-26T01:29:35;-2.70;99.90
58309;DHT22;44117;57.142;24.826;2023-02-26T01:32:07;-2.70;99.90
58309;DHT22;44117;57.142;24.826;2023-02-26T01:37:21;-2.80;99.90
58309;DHT22;44117;57.142;24.826;2023-02-26T01:42:21;-2.80;99.90
58309;DHT22;44117;57.142;24.826;2023-02-26T01:50:20;-2.80;99.90
58309;DHT22;44117;57.142;24.826;2023-02-26T01:55:17;-2.80;99.90
58309;DHT22;44117;57.142;24.826;2023-02-26T01:57:45;-2.80;99.90
58309;DHT22;44117;57.142;24.826;2023-02-26T02:00:13;-2.80;99.90
58309;DHT22;44117;57.142;24.826;2023-02-26T02:02:41;-2.80;99.90
58309;DHT22;44117;57.142;24.826;2023-02-26T02:05:11;-2.80;99.90
58309;DHT22;44117;57.142;24.826;2023-02-26T02:07:39;-2.90;99.90
58309;DHT22;44117;57.142;24.826;2023-02-26T02:10:06;-2.90;99.90
58309;DHT22;44117;57.142;24.826;2023-02-26T02:12:35;-2.90;99.90
58309;DHT22;44117;57.142;24.826;2023-02-26T02:25:41;-3.10;99.90
58309;DHT22;44117;57.142;24.826;2023-02-26T02:30:55;-3.20;99.90
58309;DHT22;44117;57.142;24.826;2023-02-26T02:33:25;-3.20;99.90
58309;DHT22;44117;57.142;24.826;2023-02-26T02:36:01;-3.20;99.90
58309;DHT22;44117;57.142;24.826;2023-02-26T02:38:37;-3.20;99.90
58309;DHT22;44117;57.142;24.826;2023-02-26T02:41:10;-3.30;99.90
58309;DHT22;44117;57.142;24.826;2023-02-26T02:43:38;-3.30;99.90
58309;DHT22;44117;57.142;24.826;2023-02-26T02:46:08;-3.30;99.90
58309;DHT22;44117;57.142;24.826;2023-02-26T02:48:41;-3.40;99.90
58309;DHT22;44117;57.142;24.826;2023-02-26T02:51:11;-3.40;99.90
58309;DHT22;44117;57.142;24.826;2023-02-26T02:53:42;-3.40;99.90
58309;DHT22;44117;57.142;24.826;2023-02-26T02:56:11;-3.40;99.90
58309;DHT22;44117;57.142;24.826;2023-02-26T02:58:43;-3.40;99.90
58309;DHT22;44117;57.142;24.826;2023-02-26T03:01:13;-3.40;99.90
58309;DHT22;44117;57.142;24.826;2023-02-26T03:03:49;-3.40;99.90
58309;DHT22;44117;57.142;24.826;2023-02-26T03:06:17;-3.50;99.90
58309;DHT22;44117;57.142;24.826;2023-02-26T03:08:44;-3.40;99.90
58309;DHT22;44117;57.142;24.826;2023-02-26T03:11:13;-3.50;99.90
58309;DHT22;44117;57.142;24.826;2023-02-26T03:13:40;-3.50;99.90
58309;DHT22;44117;57.142;24.826;2023-02-26T03:18:53;-3.60;99.90
58309;DHT22;44117;57.142;24.826;2023-02-26T03:21:43;-3.60;99.90
58309;DHT22;44117;57.142;24.826;2023-02-26T03:24:29;-3.60;99.90
58309;DHT22;44117;57.142;24.826;2023-02-26T03:27:00;-3.60;99.90
58309;DHT22;44117;57.142;24.826;2023-02-26T03:29:41;-3.60;99.90
58309;DHT22;44117;57.142;24.826;2023-02-26T03:32:11;-3.60;99.90
58309;DHT22;44117;57.142;24.826;2023-02-26T03:34:52;-3.60;99.90
58309;DHT22;44117;57.142;24.826;2023-02-26T03:37:31;-3.70;99.90
58309;DHT22;44117;57.142;24.826;2023-02-26T03:40:00;-3.60;99.90
58309;DHT22;44117;57.142;24.826;2023-02-26T03:42:35;-3.70;99.90
58309;DHT22;44117;57.142;24.826;2023-02-26T03:45:05;-3.70;99.90
58309;DHT22;44117;57.142;24.826;2023-02-26T03:47:33;-3.80;99.90
58309;DHT22;44117;57.142;24.826;2023-02-26T03:50:11;-3.80;99.90
58309;DHT22;44117;57.142;24.826;2023-02-26T03:52:40;-3.80;99.90
58309;DHT22;44117;57.142;24.826;2023-02-26T03:55:12;-3.90;99.90
58309;DHT22;44117;57.142;24.826;2023-02-26T03:57:40;-3.90;99.90
58309;DHT22;44117;57.142;24.826;2023-02-26T04:00:08;-3.90;99.90
58309;DHT22;44117;57.142;24.826;2023-02-26T04:02:37;-3.90;99.90
58309;DHT22;44117;57.142;24.826;2023-02-26T04:07:36;-4.00;99.90
58309;DHT22;44117;57.142;24.826;2023-02-26T04:10:04;-4.00;99.90
58309;DHT22;44117;57.142;24.826;2023-02-26T04:12:32;-4.10;99.90
58309;DHT22;44117;57.142;24.826;2023-02-26T04:14:59;-4.10;99.90
58309;DHT22;44117;57.142;24.826;2023-02-26T04:17:26;-4.10;99.90
58309;DHT22;44117;57.142;24.826;2023-02-26T04:19:55;-4.10;99.90
58309;DHT22;44117;57.142;24.826;2023-02-26T04:22:22;-4.10;99.90
58309;DHT22;44117;57.142;24.826;2023-02-26T04:24:49;-4.10;99.90
58309;DHT22;44117;57.142;24.826;2023-02-26T04:27:16;-4.10;99.90
58309;DHT22;44117;57.142;24.826;2023-02-26T04:29:43;-4.10;99.90
58309;DHT22;44117;57.142;24.826;2023-02-26T04:32:10;-4.10;99.90
58309;DHT22;44117;57.142;24.826;2023-02-26T04:34:38;-4.10;99.90
58309;DHT22;44117;57.142;24.826;2023-02-26T04:37:05;-4.20;99.90
58309;DHT22;44117;57.142;24.826;2023-02-26T04:39:32;-4.20;99.90
58309;DHT22;44117;57.142;24.826;2023-02-26T04:41:59;-4.30;99.90
58309;DHT22;44117;57.142;24.826;2023-02-26T04:44:26;-4.30;99.90
58309;DHT22;44117;57.142;24.826;2023-02-26T04:46:53;-4.30;99.90
58309;DHT22;44117;57.142;24.826;2023-02-26T04:49:20;-4.30;99.90
58309;DHT22;44117;57.142;24.826;2023-02-26T04:51:47;-4.30;99.90
58309;DHT22;44117;57.142;24.826;2023-02-26T04:54:14;-4.30;99.90
58309;DHT22;44117;57.142;24.826;2023-02-26T04:56:41;-4.30;99.90
58309;DHT22;44117;57.142;24.826;2023-02-26T04:59:08;-4.30;99.90
58309;DHT22;44117;57.142;24.826;2023-02-26T05:01:35;-4.30;99.90
58309;DHT22;44117;57.142;24.826;2023-02-26T05:04:02;-4.30;99.90
58309;DHT22;44117;57.142;24.826;2023-02-26T05:06:29;-4.30;99.90
58309;DHT22;44117;57.142;24.826;2023-02-26T05:08:56;-4.30;99.90
58309;DHT22;44117;57.142;24.826;2023-02-26T05:11:23;-4.30;99.90
58309;DHT22;44117;57.142;24.826;2023-02-26T05:13:50;-4.30;99.90
58309;DHT22;44117;57.142;24.826;2023-02-26T05:16:17;-4.30;99.90
58309;DHT22;44117;57.142;24.826;2023-02-26T05:18:44;-4.20;99.90
58309;DHT22;44117;57.142;24.826;2023-02-26T05:21:12;-4.30;99.90
58309;DHT22;44117;57.142;24.826;2023-02-26T05:23:39;-4.30;99.90
58309;DHT22;44117;57.142;24.826;2023-02-26T05:26:06;-4.30;99.90
58309;DHT22;44117;57.142;24.826;2023-02-26T05:28:33;-4.40;99.90
58309;DHT22;44117;57.142;24.826;2023-02-26T05:31:02;-4.40;99.90
58309;DHT22;44117;57.142;24.826;2023-02-26T05:33:29;-4.30;99.90
58309;DHT22;44117;57.142;24.826;2023-02-26T05:35:56;-4.40;99.90
58309;DHT22;44117;57.142;24.826;2023-02-26T05:38:23;-4.40;99.90
58309;DHT22;44117;57.142;24.826;2023-02-26T05:40:54;-4.40;99.90
58309;DHT22;44117;57.142;24.826;2023-02-26T05:43:21;-4.40;99.90
58309;DHT22;44117;57.142;24.826;2023-02-26T05:45:49;-4.40;99.90
58309;DHT22;44117;57.142;24.826;2023-02-26T05:48:16;-4.40;99.90
58309;DHT22;44117;57.142;24.826;2023-02-26T05:50:43;-4.40;99.90
58309;DHT22;44117;57.142;24.826;2023-02-26T05:53:10;-4.40;99.90
58309;DHT22;44117;57.142;24.826;2023-02-26T05:55:37;-4.40;99.90
58309;DHT22;44117;57.142;24.826;2023-02-26T05:58:04;-4.40;99.90
58309;DHT22;44117;57.142;24.826;2023-02-26T06:00:31;-4.40;99.90
58309;DHT22;44117;57.142;24.826;2023-02-26T06:02:59;-4.50;99.90
58309;DHT22;44117;57.142;24.826;2023-02-26T06:05:26;-4.50;99.90
58309;DHT22;44117;57.142;24.826;2023-02-26T06:07:53;-4.50;99.90
58309;DHT22;44117;57.142;24.826;2023-02-26T06:10:20;-4.50;99.90
58309;DHT22;44117;57.142;24.826;2023-02-26T06:12:47;-4.50;99.90
58309;DHT22;44117;57.142;24.826;2023-02-26T06:15:14;-4.50;99.90
58309;DHT22;44117;57.142;24.826;2023-02-26T06:17:41;-4.40;99.90
58309;DHT22;44117;57.142;24.826;2023-02-26T06:20:08;-4.50;99.90
58309;DHT22;44117;57.142;24.826;2023-02-26T06:22:35;-4.40;99.90
58309;DHT22;44117;57.142;24.826;2023-02-26T06:25:02;-4.40;99.90
58309;DHT22;44117;57.142;24.826;2023-02-26T06:27:29;-4.40;99.90
58309;DHT22;44117;57.142;24.826;2023-02-26T06:29:56;-4.40;99.90
58309;DHT22;44117;57.142;24.826;2023-02-26T06:32:23;-4.40;99.90
58309;DHT22;44117;57.142;24.826;2023-02-26T06:34:50;-4.40;99.90
58309;DHT22;44117;57.142;24.826;2023-02-26T06:37:17;-4.30;99.90
58309;DHT22;44117;57.142;24.826;2023-02-26T06:39:44;-4.30;99.90
58309;DHT22;44117;57.142;24.826;2023-02-26T06:42:12;-4.30;99.90
58309;DHT22;44117;57.142;24.826;2023-02-26T06:44:38;-4.30;99.90
58309;DHT22;44117;57.142;24.826;2023-02-26T06:47:06;-4.30;99.90
58309;DHT22;44117;57.142;24.826;2023-02-26T06:49:33;-4.30;99.90
58309;DHT22;44117;57.142;24.826;2023-02-26T06:52:00;-4.20;99.90
58309;DHT22;44117;57.142;24.826;2023-02-26T06:54:27;-4.30;99.90
58309;DHT22;44117;57.142;24.826;2023-02-26T06:56:54;-4.30;99.90
58309;DHT22;44117;57.142;24.826;2023-02-26T06:59:23;-4.30;99.90
58309;DHT22;44117;57.142;24.826;2023-02-26T07:01:50;-4.30;99.90
58309;DHT22;44117;57.142;24.826;2023-02-26T07:04:17;-4.40;99.90
58309;DHT22;44117;57.142;24.826;2023-02-26T07:06:46;-4.30;99.90
58309;DHT22;44117;57.142;24.826;2023-02-26T07:09:13;-4.20;99.90
58309;DHT22;44117;57.142;24.826;2023-02-26T07:11:40;-4.30;99.90
58309;DHT22;44117;57.142;24.826;2023-02-26T07:14:07;-4.20;99.90
58309;DHT22;44117;57.142;24.826;2023-02-26T07:16:35;-4.20;99.90
58309;DHT22;44117;57.142;24.826;2023-02-26T07:19:02;-4.10;99.90
58309;DHT22;44117;57.142;24.826;2023-02-26T07:21:29;-4.10;99.90
58309;DHT22;44117;57.142;24.826;2023-02-26T07:23:56;-4.00;99.90
58309;DHT22;44117;57.142;24.826;2023-02-26T07:26:23;-3.90;99.90
58309;DHT22;44117;57.142;24.826;2023-02-26T07:28:50;-3.90;99.90
58309;DHT22;44117;57.142;24.826;2023-02-26T07:31:17;-4.00;99.90
58309;DHT22;44117;57.142;24.826;2023-02-26T07:33:44;-3.80;99.90
58309;DHT22;44117;57.142;24.826;2023-02-26T07:36:11;-3.80;99.90
58309;DHT22;44117;57.142;24.826;2023-02-26T07:38:38;-3.60;99.90
58309;DHT22;44117;57.142;24.826;2023-02-26T07:41:05;-3.60;99.90
58309;DHT22;44117;57.142;24.826;2023-02-26T07:43:34;-3.70;99.90
58309;DHT22;44117;57.142;24.826;2023-02-26T07:46:01;-3.60;99.90
58309;DHT22;44117;57.142;24.826;2023-02-26T07:48:29;-3.60;99.90
58309;DHT22;44117;57.142;24.826;2023-02-26T07:50:56;-3.60;99.90
58309;DHT22;44117;57.142;24.826;2023-02-26T07:53:23;-3.60;99.90
58309;DHT22;44117;57.142;24.826;2023-02-26T07:55:50;-3.40;99.90
58309;DHT22;44117;57.142;24.826;2023-02-26T07:58:17;-3.40;99.90
58309;DHT22;44117;57.142;24.826;2023-02-26T08:00:44;-3.40;99.90
58309;DHT22;44117;57.142;24.826;2023-02-26T08:03:11;-3.30;99.90
58309;DHT22;44117;57.142;24.826;2023-02-26T08:05:38;-3.40;99.90
58309;DHT22;44117;57.142;24.826;2023-02-26T08:08:05;-3.40;99.90
58309;DHT22;44117;57.142;24.826;2023-02-26T08:10:32;-3.40;99.90
58309;DHT22;44117;57.142;24.826;2023-02-26T08:12:59;-3.20;99.90
58309;DHT22;44117;57.142;24.826;2023-02-26T08:15:26;-3.30;99.90
58309;DHT22;44117;57.142;24.826;2023-02-26T08:17:53;-3.10;99.90
58309;DHT22;44117;57.142;24.826;2023-02-26T08:20:20;-3.10;99.90
58309;DHT22;44117;57.142;24.826;2023-02-26T08:22:48;-3.10;99.90
58309;DHT22;44117;57.142;24.826;2023-02-26T08:25:16;-3.00;99.90
58309;DHT22;44117;57.142;24.826;2023-02-26T08:27:43;-3.20;99.90
58309;DHT22;44117;57.142;24.826;2023-02-26T08:30:10;-3.20;99.90
58309;DHT22;44117;57.142;24.826;2023-02-26T08:32:37;-3.40;99.90
58309;DHT22;44117;57.142;24.826;2023-02-26T08:35:05;-3.30;99.90
58309;DHT22;44117;57.142;24.826;2023-02-26T08:37:32;-3.00;99.90
58309;DHT22;44117;57.142;24.826;2023-02-26T08:40:00;-2.90;99.90
58309;DHT22;44117;57.142;24.826;2023-02-26T08:42:27;-2.90;99.90
58309;DHT22;44117;57.142;24.826;2023-02-26T08:44:54;-2.70;99.90
58309;DHT22;44117;57.142;24.826;2023-02-26T08:47:21;-2.60;99.90
58309;DHT22;44117;57.142;24.826;2023-02-26T08:49:54;-2.10;99.90
58309;DHT22;44117;57.142;24.826;2023-02-26T08:52:22;-2.20;99.90
58309;DHT22;44117;57.142;24.826;2023-02-26T08:54:49;-2.00;99.90
58309;DHT22;44117;57.142;24.826;2023-02-26T08:57:16;-1.80;99.90
58309;DHT22;44117;57.142;24.826;2023-02-26T08:59:43;-1.70;99.90
58309;DHT22;44117;57.142;24.826;2023-02-26T09:02:11;-2.00;99.90
58309;DHT22;44117;57.142;24.826;2023-02-26T09:04:38;-1.90;99.90
58309;DHT22;44117;57.142;24.826;2023-02-26T09:07:05;-1.80;99.90
58309;DHT22;44117;57.142;24.826;2023-02-26T09:09:32;-2.00;99.90
58309;DHT22;44117;57.142;24.826;2023-02-26T09:11:59;-2.20;99.90
58309;DHT22;44117;57.142;24.826;2023-02-26T09:14:26;-2.50;99.90
58309;DHT22;44117;57.142;24.826;2023-02-26T09:16:53;-2.30;99.90
58309;DHT22;44117;57.142;24.826;2023-02-26T09:19:21;-2.20;99.90
58309;DHT22;44117;57.142;24.826;2023-02-26T09:21:48;-2.20;99.90
58309;DHT22;44117;57.142;24.826;2023-02-26T09:24:15;-2.30;99.90
58309;DHT22;44117;57.142;24.826;2023-02-26T09:26:42;-2.20;99.90
58309;DHT22;44117;57.142;24.826;2023-02-26T09:29:09;-2.40;99.90
58309;DHT22;44117;57.142;24.826;2023-02-26T09:31:37;-2.40;99.90
58309;DHT22;44117;57.142;24.826;2023-02-26T09:34:04;-2.30;99.90
58309;DHT22;44117;57.142;24.826;2023-02-26T09:36:31;-2.30;99.90
58309;DHT22;44117;57.142;24.826;2023-02-26T09:38:58;-2.50;99.90
58309;DHT22;44117;57.142;24.826;2023-02-26T09:41:30;-2.30;99.90
58309;DHT22;44117;57.142;24.826;2023-02-26T09:44:02;-2.10;99.90
58309;DHT22;44117;57.142;24.826;2023-02-26T09:51:48;-2.00;99.90
58309;DHT22;44117;57.142;24.826;2023-02-26T09:54:27;-1.80;99.90
58309;DHT22;44117;57.142;24.826;2023-02-26T09:56:56;-1.70;99.90
58309;DHT22;44117;57.142;24.826;2023-02-26T09:59:26;-1.80;99.90
58309;DHT22;44117;57.142;24.826;2023-02-26T10:02:04;-1.70;99.90
58309;DHT22;44117;57.142;24.826;2023-02-26T10:10:05;-1.50;99.90
58309;DHT22;44117;57.142;24.826;2023-02-26T10:12:35;-1.20;99.90
58309;DHT22;44117;57.142;24.826;2023-02-26T10:15:13;-0.90;99.90
58309;DHT22;44117;57.142;24.826;2023-02-26T10:20:31;-0.80;99.90
58309;DHT22;44117;57.142;24.826;2023-02-26T10:23:03;-0.90;99.90
58309;DHT22;44117;57.142;24.826;2023-02-26T10:25:35;-1.30;99.90
58309;DHT22;44117;57.142;24.826;2023-02-26T10:28:49;-1.50;99.90
58309;DHT22;44117;57.142;24.826;2023-02-26T10:30:55;-1.40;99.90
58309;DHT22;44117;57.142;24.826;2023-02-26T10:35:57;-1.70;99.90
58309;DHT22;44117;57.142;24.826;2023-02-26T10:38:25;-1.80;99.90
58309;DHT22;44117;57.142;24.826;2023-02-26T10:43:27;-1.80;99.90
58309;DHT22;44117;57.142;24.826;2023-02-26T10:46:06;-1.40;99.90
58309;DHT22;44117;57.142;24.826;2023-02-26T10:48:39;-1.40;99.90
58309;DHT22;44117;57.142;24.826;2023-02-26T10:51:20;-1.50;99.90
58309;DHT22;44117;57.142;24.826;2023-02-26T10:53:53;-1.50;99.90
58309;DHT22;44117;57.142;24.826;2023-02-26T10:56:31;-1.30;99.90
58309;DHT22;44117;57.142;24.826;2023-02-26T10:58:58;-1.40;99.90
58309;DHT22;44117;57.142;24.826;2023-02-26T11:01:27;-1.30;99.90
58309;DHT22;44117;57.142;24.826;2023-02-26T11:03:56;-1.10;99.90
58309;DHT22;44117;57.142;24.826;2023-02-26T11:06:26;-1.20;99.90
58309;DHT22;44117;57.142;24.826;2023-02-26T11:08:54;-1.30;99.90
58309;DHT22;44117;57.142;24.826;2023-02-26T11:14:08;-1.10;99.90
58309;DHT22;44117;57.142;24.826;2023-02-26T11:16:39;-0.90;99.90
58309;DHT22;44117;57.142;24.826;2023-02-26T11:19:07;-0.70;99.90
58309;DHT22;44117;57.142;24.826;2023-02-26T11:21:37;-0.20;99.90
58309;DHT22;44117;57.142;24.826;2023-02-26T11:26:41;0.10;99.90
58309;DHT22;44117;57.142;24.826;2023-02-26T11:29:12;-0.20;99.90
58309;DHT22;44117;57.142;24.826;2023-02-26T11:31:40;0.10;99.90
58309;DHT22;44117;57.142;24.826;2023-02-26T11:34:10;0.70;99.90
58309;DHT22;44117;57.142;24.826;2023-02-26T11:36:39;0.30;99.90
58309;DHT22;44117;57.142;24.826;2023-02-26T11:39:07;0.40;99.90
58309;DHT22;44117;57.142;24.826;2023-02-26T11:41:38;0.20;99.90
58309;DHT22;44117;57.142;24.826;2023-02-26T11:44:07;-0.10;99.90
58309;DHT22;44117;57.142;24.826;2023-02-26T11:46:37;-0.40;99.90
58309;DHT22;44117;57.142;24.826;2023-02-26T11:49:07;-0.10;99.90
58309;DHT22;44117;57.142;24.826;2023-02-26T11:51:35;-0.10;99.90
58309;DHT22;44117;57.142;24.826;2023-02-26T11:54:02;-0.50;99.90
58309;DHT22;44117;57.142;24.826;2023-02-26T11:58:58;0.40;99.90
58309;DHT22;44117;57.142;24.826;2023-02-26T12:01:27;1.20;99.90
58309;DHT22;44117;57.142;24.826;2023-02-26T12:03:57;1.40;99.40
58309;DHT22;44117;57.142;24.826;2023-02-26T12:06:24;1.60;98.80
58309;DHT22;44117;57.142;24.826;2023-02-26T12:08:52;1.30;98.50
58309;DHT22;44117;57.142;24.826;2023-02-26T12:14:18;1.60;99.40
58309;DHT22;44117;57.142;24.826;2023-02-26T12:17:02;0.90;98.60
58309;DHT22;44117;57.142;24.826;2023-02-26T12:32:36;0.00;99.90
58309;DHT22;44117;57.142;24.826;2023-02-26T13:03:35;-0.20;99.90
58309;DHT22;44117;57.142;24.826;2023-02-26T13:11:24;-0.10;99.90
58309;DHT22;44117;57.142;24.826;2023-02-26T13:14:04;0.00;99.90
58309;DHT22;44117;57.142;24.826;2023-02-26T13:16:43;0.00;99.90
58309;DHT22;44117;57.142;24.826;2023-02-26T13:21:57;0.40;99.90
58309;DHT22;44117;57.142;24.826;2023-02-26T13:24:39;0.70;99.90
58309;DHT22;44117;57.142;24.826;2023-02-26T13:27:07;0.70;99.50
58309;DHT22;44117;57.142;24.826;2023-02-26T13:29:36;0.10;99.90
58309;DHT22;44117;57.142;24.826;2023-02-26T13:32:27;-0.20;99.90
58309;DHT22;44117;57.142;24.826;2023-02-26T13:39:49;-1.10;99.90
58309;DHT22;44117;57.142;24.826;2023-02-26T13:45:14;-1.40;99.90
58309;DHT22;44117;57.142;24.826;2023-02-26T13:52:52;-1.70;99.90
58309;DHT22;44117;57.142;24.826;2023-02-26T13:58:15;-2.00;99.90
58309;DHT22;44117;57.142;24.826;2023-02-26T14:00:46;-2.10;99.90
58309;DHT22;44117;57.142;24.826;2023-02-26T14:08:38;-2.10;99.90
58309;DHT22;44117;57.142;24.826;2023-02-26T14:13:41;-1.80;99.90
58309;DHT22;44117;57.142;24.826;2023-02-26T14:18:41;-1.60;99.90
58309;DHT22;44117;57.142;24.826;2023-02-26T14:23:59;-1.60;99.90
58309;DHT22;44117;57.142;24.826;2023-02-26T14:26:27;-1.60;99.90
58309;DHT22;44117;57.142;24.826;2023-02-26T14:34:29;-1.90;99.90
58309;DHT22;44117;57.142;24.826;2023-02-26T14:36:57;-1.90;99.90
58309;DHT22;44117;57.142;24.826;2023-02-26T14:41:58;-2.00;99.90
58309;DHT22;44117;57.142;24.826;2023-02-26T14:44:30;-2.10;99.90
58309;DHT22;44117;57.142;24.826;2023-02-26T14:47:00;-2.20;99.90
58309;DHT22;44117;57.142;24.826;2023-02-26T14:49:29;-2.20;99.90
58309;DHT22;44117;57.142;24.826;2023-02-26T14:57:02;-2.40;99.90
58309;DHT22;44117;57.142;24.826;2023-02-26T15:02:13;-2.50;99.90
58309;DHT22;44117;57.142;24.826;2023-02-26T15:05:06;-2.50;99.90
58309;DHT22;44117;57.142;24.826;2023-02-26T15:15:26;-2.70;99.90
58309;DHT22;44117;57.142;24.826;2023-02-26T15:25:31;-2.70;99.90
58309;DHT22;44117;57.142;24.826;2023-02-26T15:28:00;-2.80;99.90
58309;DHT22;44117;57.142;24.826;2023-02-26T15:30:28;-2.80;99.90
58309;DHT22;44117;57.142;24.826;2023-02-26T15:32:59;-2.80;99.90
58309;DHT22;44117;57.142;24.826;2023-02-26T15:35:29;-2.90;99.90
58309;DHT22;44117;57.142;24.826;2023-02-26T15:37:58;-2.90;99.90
58309;DHT22;44117;57.142;24.826;2023-02-26T15:40:28;-2.90;99.90
58309;DHT22;44117;57.142;24.826;2023-02-26T15:42:56;-3.00;99.90
58309;DHT22;44117;57.142;24.826;2023-02-26T15:45:26;-3.00;99.90
58309;DHT22;44117;57.142;24.826;2023-02-26T15:47:54;-3.00;99.90
58309;DHT22;44117;57.142;24.826;2023-02-26T15:50:27;-3.00;99.90
58309;DHT22;44117;57.142;24.826;2023-02-26T15:52:56;-3.10;99.90
58309;DHT22;44117;57.142;24.826;2023-02-26T15:55:24;-3.00;99.90
58309;DHT22;44117;57.142;24.826;2023-02-26T15:57:52;-3.00;99.90
58309;DHT22;44117;57.142;24.826;2023-02-26T16:00:20;-3.10;99.90
58309;DHT22;44117;57.142;24.826;2023-02-26T16:02:55;-3.10;99.90
58309;DHT22;44117;57.142;24.826;2023-02-26T16:05:25;-3.10;99.90
58309;DHT22;44117;57.142;24.826;2023-02-26T16:07:53;-3.10;99.90
58309;DHT22;44117;57.142;24.826;2023-02-26T16:13:00;-3.10;99.90
58309;DHT22;44117;57.142;24.826;2023-02-26T16:15:30;-3.10;99.90
58309;DHT22;44117;57.142;24.826;2023-02-26T16:17:58;-3.10;99.90
58309;DHT22;44117;57.142;24.826;2023-02-26T16:20:26;-3.20;99.90
58309;DHT22;44117;57.142;24.826;2023-02-26T16:22:58;-3.20;99.90
58309;DHT22;44117;57.142;24.826;2023-02-26T16:27:58;-3.20;99.90
58309;DHT22;44117;57.142;24.826;2023-02-26T16:30:33;-3.20;99.90
58309;DHT22;44117;57.142;24.826;2023-02-26T16:33:02;-3.20;99.90
58309;DHT22;44117;57.142;24.826;2023-02-26T16:35:36;-3.20;99.90
58309;DHT22;44117;57.142;24.826;2023-02-26T16:38:09;-3.30;99.90
58309;DHT22;44117;57.142;24.826;2023-02-26T16:40:39;-3.30;99.90
58309;DHT22;44117;57.142;24.826;2023-02-26T16:45:49;-3.30;99.90
58309;DHT22;44117;57.142;24.826;2023-02-26T16:48:21;-3.30;99.90
58309;DHT22;44117;57.142;24.826;2023-02-26T16:50:52;-3.30;99.90
58309;DHT22;44117;57.142;24.826;2023-02-26T16:53:21;-3.30;99.90
58309;DHT22;44117;57.142;24.826;2023-02-26T16:55:51;-3.40;99.90
58309;DHT22;44117;57.142;24.826;2023-02-26T16:58:20;-3.40;99.90
58309;DHT22;44117;57.142;24.826;2023-02-26T17:00:51;-3.30;99.90
58309;DHT22;44117;57.142;24.826;2023-02-26T17:03:20;-3.40;99.90
58309;DHT22;44117;57.142;24.826;2023-02-26T17:05:58;-3.40;99.90
58309;DHT22;44117;57.142;24.826;2023-02-26T17:08:27;-3.40;99.90
58309;DHT22;44117;57.142;24.826;2023-02-26T17:11:01;-3.40;99.90
58309;DHT22;44117;57.142;24.826;2023-02-26T17:13:29;-3.40;99.90
58309;DHT22;44117;57.142;24.826;2023-02-26T17:15:58;-3.40;99.90
58309;DHT22;44117;57.142;24.826;2023-02-26T17:18:25;-3.40;99.90
58309;DHT22;44117;57.142;24.826;2023-02-26T17:20:53;-3.40;99.90
58309;DHT22;44117;57.142;24.826;2023-02-26T17:23:20;-3.40;99.90
58309;DHT22;44117;57.142;24.826;2023-02-26T17:25:50;-3.40;99.90
58309;DHT22;44117;57.142;24.826;2023-02-26T17:28:31;-3.40;99.90
58309;DHT22;44117;57.142;24.826;2023-02-26T17:31:02;-3.40;99.90
58309;DHT22;44117;57.142;24.826;2023-02-26T17:33:30;-3.40;99.90
58309;DHT22;44117;57.142;24.826;2023-02-26T17:36:01;-3.50;99.90
58309;DHT22;44117;57.142;24.826;2023-02-26T17:38:28;-3.50;99.90
58309;DHT22;44117;57.142;24.826;2023-02-26T17:40:56;-3.50;99.90
58309;DHT22;44117;57.142;24.826;2023-02-26T17:43:24;-3.40;99.90
58309;DHT22;44117;57.142;24.826;2023-02-26T17:45:51;-3.40;99.90
58309;DHT22;44117;57.142;24.826;2023-02-26T17:48:19;-3.50;99.90
58309;DHT22;44117;57.142;24.826;2023-02-26T17:50:47;-3.40;99.90
58309;DHT22;44117;57.142;24.826;2023-02-26T17:53:16;-3.50;99.90
58309;DHT22;44117;57.142;24.826;2023-02-26T17:55:43;-3.50;99.90
58309;DHT22;44117;57.142;24.826;2023-02-26T17:58:13;-3.50;99.90
58309;DHT22;44117;57.142;24.826;2023-02-26T18:00:41;-3.50;99.90
58309;DHT22;44117;57.142;24.826;2023-02-26T18:03:09;-3.50;99.90
58309;DHT22;44117;57.142;24.826;2023-02-26T18:05:36;-3.40;99.90
58309;DHT22;44117;57.142;24.826;2023-02-26T18:08:05;-3.40;99.90
58309;DHT22;44117;57.142;24.826;2023-02-26T18:10:33;-3.40;99.90
58309;DHT22;44117;57.142;24.826;2023-02-26T18:13:00;-3.40;99.90
58309;DHT22;44117;57.142;24.826;2023-02-26T18:15:29;-3.50;99.90
58309;DHT22;44117;57.142;24.826;2023-02-26T18:17:56;-3.40;99.90
58309;DHT22;44117;57.142;24.826;2023-02-26T18:20:24;-3.50;99.90
58309;DHT22;44117;57.142;24.826;2023-02-26T18:22:52;-3.40;99.90
58309;DHT22;44117;57.142;24.826;2023-02-26T18:25:20;-3.40;99.90
58309;DHT22;44117;57.142;24.826;2023-02-26T18:27:50;-3.50;99.90
58309;DHT22;44117;57.142;24.826;2023-02-26T18:30:21;-3.50;99.90
58309;DHT22;44117;57.142;24.826;2023-02-26T18:32:49;-3.50;99.90
58309;DHT22;44117;57.142;24.826;2023-02-26T18:35:16;-3.40;99.90
58309;DHT22;44117;57.142;24.826;2023-02-26T18:37:44;-3.40;99.90
58309;DHT22;44117;57.142;24.826;2023-02-26T18:40:12;-3.50;99.90